Time;durP1;ratioP1;P1;durP2;ratioP2;P2;SDS_P1;SDS_P2;PMS_P1;PMS_P2;Temp;Humidity;BMP_temperature;BMP_pressure;BME280_temperature;BME280_humidity;BME280_pressure;Samples;Min_cycle;Max_cycle;Signal;HPM_P1;HPM_P2
2021/03/01 00:01:48;;;;;;;10.37;7.83;;;2.80;99.90;;;;;;5114681;27;20191;-52
2021/03/01 00:04:14;;;;;;;10.73;6.93;;;2.80;99.90;;;;;;5113910;27;20536;-51
2021/03/01 00:06:39;;;;;;;8.43;7.13;;;2.90;99.90;;;;;;5114037;27;20246;-51
2021/03/01 00:09:05;;;;;;;9.30;7.50;;;2.70;99.90;;;;;;5114383;27;20293;-51
2021/03/01 00:11:32;;;;;;;9.88;7.82;;;2.70;99.90;;;;;;5114339;27;20183;-52
2021/03/01 00:13:58;;;;;;;9.27;7.40;;;2.50;99.90;;;;;;5112938;27;20179;-51
2021/03/01 00:16:24;;;;;;;10.00;7.07;;;2.70;99.90;;;;;;5113878;27;20268;-52
2021/03/01 00:18:50;;;;;;;12.57;7.50;;;2.50;99.90;;;;;;5115184;27;20773;-52
2021/03/01 00:21:16;;;;;;;10.50;8.00;;;2.60;99.90;;;;;;5114669;27;20185;-51
2021/03/01 00:23:41;;;;;;;10.63;8.20;;;2.40;99.90;;;;;;5113704;27;20192;-52
2021/03/01 00:26:07;;;;;;;10.60;8.10;;;2.70;99.90;;;;;;5114218;27;20460;-52
2021/03/01 00:28:32;;;;;;;11.60;7.57;;;2.70;99.90;;;;;;5114054;27;20242;-52
2021/03/01 00:30:58;;;;;;;13.07;7.33;;;2.60;99.90;;;;;;5095590;27;20265;-52
2021/03/01 00:33:23;;;;;;;17.87;7.73;;;2.40;99.90;;;;;;5114316;27;20172;-52
2021/03/01 00:35:49;;;;;;;11.30;7.70;;;2.80;99.90;;;;;;5114176;27;20236;-52
2021/03/01 00:38:15;;;;;;;9.53;6.97;;;2.70;99.90;;;;;;5114287;27;20217;-52
2021/03/01 00:40:40;;;;;;;8.53;7.03;;;2.30;99.90;;;;;;5113767;27;20232;-52
2021/03/01 00:43:06;;;;;;;10.90;7.83;;;2.30;99.90;;;;;;5113838;27;20183;-52
2021/03/01 00:45:31;;;;;;;12.67;8.20;;;2.20;99.90;;;;;;5113888;27;20222;-52
2021/03/01 00:47:57;;;;;;;10.43;7.33;;;2.40;99.90;;;;;;5111408;27;20207;-52
2021/03/01 00:50:23;;;;;;;10.17;7.77;;;2.60;99.90;;;;;;5108669;27;20191;-51
2021/03/01 00:52:48;;;;;;;10.70;8.17;;;2.50;99.90;;;;;;5100284;27;20183;-52
2021/03/01 00:55:16;;;;;;;13.77;7.70;;;2.60;99.90;;;;;;5113456;27;20186;-51
2021/03/01 00:57:42;;;;;;;10.68;6.63;;;2.50;99.90;;;;;;5112855;27;20203;-51
2021/03/01 01:00:13;;;;;;;10.60;7.67;;;2.20;99.90;;;;;;5113212;27;20527;-52
2021/03/01 01:02:39;;;;;;;10.80;7.55;;;2.30;99.90;;;;;;5110218;27;20913;-51
2021/03/01 01:05:06;;;;;;;9.60;7.40;;;2.30;99.90;;;;;;5131988;27;20190;-52
2021/03/01 01:07:31;;;;;;;9.13;7.22;;;2.20;99.90;;;;;;5113065;27;20536;-52
2021/03/01 01:09:57;;;;;;;12.80;8.00;;;2.30;99.90;;;;;;5113240;27;20270;-52
2021/03/01 01:12:22;;;;;;;13.13;7.50;;;2.40;99.90;;;;;;5113041;27;20175;-52
2021/03/01 01:14:48;;;;;;;11.90;8.40;;;2.30;99.90;;;;;;5112988;27;20198;-51
2021/03/01 01:17:14;;;;;;;10.30;6.40;;;2.30;99.90;;;;;;5113255;27;20623;-52
2021/03/01 01:19:40;;;;;;;9.07;6.50;;;2.30;99.90;;;;;;5112408;27;20429;-52
2021/03/01 01:22:05;;;;;;;10.60;6.70;;;2.40;99.90;;;;;;5113099;27;20433;-51
2021/03/01 01:24:31;;;;;;;11.40;8.13;;;2.20;99.90;;;;;;5112361;28;20183;-51
2021/03/01 01:26:57;;;;;;;11.33;6.83;;;2.40;99.90;;;;;;5114114;27;20252;-52
2021/03/01 01:29:22;;;;;;;9.93;7.13;;;2.20;99.90;;;;;;5113314;27;20539;-52
2021/03/01 01:31:48;;;;;;;12.03;7.63;;;2.30;99.90;;;;;;5113267;27;20587;-51
2021/03/01 01:34:13;;;;;;;8.03;6.73;;;2.10;99.90;;;;;;5112993;27;20178;-52
2021/03/01 01:36:39;;;;;;;11.10;7.73;;;2.30;99.90;;;;;;5108277;27;20308;-52
2021/03/01 01:39:05;;;;;;;9.70;6.67;;;2.20;99.90;;;;;;5112871;27;20606;-52
2021/03/01 01:41:30;;;;;;;11.80;7.00;;;2.10;99.90;;;;;;5131183;27;20190;-51
2021/03/01 01:43:56;;;;;;;12.33;7.57;;;2.40;99.90;;;;;;5112787;27;20432;-51
2021/03/01 01:46:22;;;;;;;11.40;7.20;;;2.10;99.90;;;;;;5112483;27;20586;-51
2021/03/01 01:48:48;;;;;;;9.83;7.77;;;2.00;99.90;;;;;;5112138;27;20273;-52
2021/03/01 01:51:13;;;;;;;8.50;6.70;;;2.40;99.90;;;;;;5112157;27;20439;-52
2021/03/01 01:53:39;;;;;;;12.43;7.17;;;2.30;99.90;;;;;;5112349;27;20231;-52
2021/03/01 01:56:05;;;;;;;9.40;7.20;;;1.90;99.90;;;;;;5112101;27;20461;-52
2021/03/01 01:58:31;;;;;;;11.90;7.57;;;2.10;99.90;;;;;;5112216;27;20433;-52
2021/03/01 02:00:57;;;;;;;12.23;8.05;;;1.80;99.90;;;;;;5111895;27;20443;-52
2021/03/01 02:03:33;;;;;;;11.30;7.35;;;2.10;99.90;;;;;;5130684;27;20175;-52
2021/03/01 02:06:23;;;;;;;9.45;7.55;;;2.00;99.90;;;;;;5112353;27;20271;-52
2021/03/01 02:09:15;;;;;;;11.98;7.57;;;2.30;99.90;;;;;;5111829;27;20210;-52
2021/03/01 02:12:09;;;;;;;11.30;7.63;;;2.10;99.90;;;;;;5111446;27;20232;-52
2021/03/01 02:14:49;;;;;;;11.25;7.40;;;2.10;99.90;;;;;;5084061;28;20209;-51
2021/03/01 02:17:15;;;;;;;13.05;8.73;;;2.10;99.90;;;;;;5109420;27;20244;-51
2021/03/01 02:19:41;;;;;;;10.18;7.15;;;2.00;99.90;;;;;;5112101;27;20187;-51
2021/03/01 02:22:07;;;;;;;10.73;7.27;;;2.00;99.90;;;;;;5110204;27;20191;-52
2021/03/01 02:24:49;;;;;;;9.23;7.40;;;1.80;99.90;;;;;;5111945;27;20183;-52
2021/03/01 02:27:28;;;;;;;10.50;7.78;;;1.90;99.90;;;;;;5111492;27;20459;-52
2021/03/01 02:30:09;;;;;;;9.60;7.15;;;1.80;99.90;;;;;;5111718;27;20245;-52
2021/03/01 02:32:37;;;;;;;10.60;7.10;;;1.90;99.90;;;;;;5111582;27;20210;-51
2021/03/01 02:35:05;;;;;;;8.98;7.10;;;2.00;99.90;;;;;;5130222;27;20233;-52
2021/03/01 02:37:31;;;;;;;8.23;7.40;;;1.90;99.90;;;;;;5110736;27;20194;-52
2021/03/01 02:39:58;;;;;;;8.48;7.05;;;1.80;99.90;;;;;;5111551;27;20231;-51
2021/03/01 02:42:28;;;;;;;9.18;6.85;;;1.90;99.90;;;;;;5112071;28;20187;-52
2021/03/01 02:44:56;;;;;;;9.85;6.85;;;1.70;99.90;;;;;;5112408;27;20186;-52
2021/03/01 02:47:25;;;;;;;9.57;6.95;;;1.70;99.90;;;;;;5111395;27;20569;-51
2021/03/01 02:49:54;;;;;;;11.75;8.88;;;1.70;99.90;;;;;;5111136;28;20230;-51
2021/03/01 02:52:21;;;;;;;12.98;8.30;;;1.90;99.90;;;;;;5111335;28;20306;-52
2021/03/01 02:54:48;;;;;;;11.18;7.95;;;1.80;99.90;;;;;;5109958;28;20692;-52
2021/03/01 02:57:15;;;;;;;10.88;7.60;;;1.90;99.90;;;;;;5111536;28;20283;-51
2021/03/01 02:59:42;;;;;;;10.77;7.60;;;1.70;99.90;;;;;;5111152;28;20196;-52
2021/03/01 03:02:09;;;;;;;9.57;6.63;;;1.90;99.90;;;;;;5111244;28;20180;-52
2021/03/01 03:04:36;;;;;;;10.88;7.97;;;1.80;99.90;;;;;;5110051;28;20401;-52
2021/03/01 03:07:06;;;;;;;11.40;7.93;;;1.60;99.90;;;;;;5111405;28;20230;-52
2021/03/01 03:09:33;;;;;;;9.95;6.90;;;1.50;99.90;;;;;;5097864;28;20675;-52
2021/03/01 03:12:01;;;;;;;10.27;7.90;;;1.60;99.90;;;;;;5107273;28;20597;-52
2021/03/01 03:14:28;;;;;;;12.65;8.85;;;1.60;99.90;;;;;;5112015;28;20595;-52
2021/03/01 03:16:57;;;;;;;10.70;7.18;;;1.60;99.90;;;;;;5111661;28;20279;-51
2021/03/01 03:19:24;;;;;;;10.52;7.43;;;1.80;99.90;;;;;;5105189;28;20526;-51
2021/03/01 03:21:49;;;;;;;10.50;7.03;;;1.50;99.90;;;;;;5111218;28;20260;-52
2021/03/01 03:24:15;;;;;;;14.10;7.60;;;1.60;99.90;;;;;;5111324;28;20658;-52
2021/03/01 03:26:41;;;;;;;12.30;7.63;;;1.50;99.90;;;;;;5110253;28;20742;-51
2021/03/01 03:29:07;;;;;;;9.32;6.65;;;1.70;99.90;;;;;;5111142;28;20206;-51
2021/03/01 03:31:32;;;;;;;10.30;6.97;;;1.80;99.90;;;;;;5110880;28;20190;-51
2021/03/01 03:33:58;;;;;;;10.60;6.80;;;1.30;99.90;;;;;;5111072;28;20936;-52
2021/03/01 03:36:27;;;;;;;12.82;8.10;;;1.40;99.90;;;;;;5110894;28;20671;-52
2021/03/01 03:39:06;;;;;;;11.52;7.15;;;1.40;99.90;;;;;;5111289;28;20183;-51
2021/03/01 03:41:32;;;;;;;11.25;7.95;;;1.60;99.90;;;;;;5129478;28;20214;-52
2021/03/01 03:44:00;;;;;;;9.57;6.68;;;1.40;99.90;;;;;;5111378;28;20347;-51
2021/03/01 03:46:28;;;;;;;11.30;7.65;;;1.50;99.90;;;;;;5111157;28;20207;-52
2021/03/01 03:48:54;;;;;;;9.07;7.07;;;1.40;99.90;;;;;;5112726;27;20206;-52
2021/03/01 03:51:22;;;;;;;10.52;7.38;;;1.40;99.90;;;;;;5108598;27;20548;-52
2021/03/01 03:53:50;;;;;;;10.98;7.13;;;1.50;99.90;;;;;;5113757;27;20325;-52
2021/03/01 03:56:22;;;;;;;10.65;7.53;;;1.40;99.90;;;;;;5111540;27;20203;-51
2021/03/01 03:58:57;;;;;;;12.00;8.02;;;1.50;99.90;;;;;;5114432;27;20178;-52
2021/03/01 04:01:25;;;;;;;11.35;6.95;;;1.30;99.90;;;;;;5132654;27;20652;-52
2021/03/01 04:03:59;;;;;;;12.82;7.90;;;1.20;99.90;;;;;;5103781;27;20225;-52
2021/03/01 04:06:25;;;;;;;10.45;7.38;;;1.30;99.90;;;;;;5112804;27;20283;-51
2021/03/01 04:08:53;;;;;;;12.13;7.78;;;1.40;99.90;;;;;;5132627;27;20206;-52
2021/03/01 04:11:24;;;;;;;13.65;8.18;;;1.40;99.90;;;;;;5114674;27;20647;-51
2021/03/01 04:13:53;;;;;;;11.80;7.18;;;1.20;99.90;;;;;;5114126;27;20183;-52
2021/03/01 04:16:20;;;;;;;11.93;8.05;;;1.20;99.90;;;;;;5113962;27;20199;-52
2021/03/01 04:18:48;;;;;;;15.00;8.70;;;1.50;99.90;;;;;;5113576;27;20183;-52
2021/03/01 04:21:16;;;;;;;15.23;8.40;;;1.40;99.90;;;;;;5113900;27;20629;-51
2021/03/01 04:23:45;;;;;;;12.93;7.30;;;1.40;99.90;;;;;;5100804;27;20179;-51
2021/03/01 04:26:11;;;;;;;13.52;8.50;;;1.20;99.90;;;;;;5114017;27;20207;-51
2021/03/01 04:28:36;;;;;;;11.60;7.47;;;1.10;99.90;;;;;;5114119;27;20207;-52
2021/03/01 04:31:05;;;;;;;11.37;7.83;;;1.30;99.90;;;;;;5113866;27;20698;-51
2021/03/01 04:33:35;;;;;;;17.45;7.45;;;1.10;99.90;;;;;;5107917;27;20512;-51
2021/03/01 04:36:01;;;;;;;11.15;7.32;;;1.30;99.90;;;;;;5115011;27;20226;-52
2021/03/01 04:38:27;;;;;;;9.38;7.10;;;1.30;99.90;;;;;;5114421;27;20175;-51
2021/03/01 04:40:53;;;;;;;11.60;7.73;;;1.10;99.90;;;;;;5111742;27;20698;-51
2021/03/01 04:43:21;;;;;;;14.43;8.80;;;1.30;99.90;;;;;;5113779;27;20469;-52
2021/03/01 04:45:51;;;;;;;11.93;7.45;;;1.40;99.90;;;;;;5132588;27;20183;-51
2021/03/01 04:48:17;;;;;;;11.50;7.60;;;1.40;99.90;;;;;;5113798;27;20195;-52
2021/03/01 04:50:49;;;;;;;14.35;6.85;;;1.10;99.90;;;;;;5113383;27;20171;-52
2021/03/01 04:53:16;;;;;;;12.68;7.47;;;1.10;99.90;;;;;;5106188;27;20461;-51
2021/03/01 04:55:43;;;;;;;9.98;6.75;;;1.40;99.90;;;;;;5113807;27;20648;-51
2021/03/01 04:58:09;;;;;;;11.70;8.02;;;1.30;99.90;;;;;;5113972;27;20187;-52
2021/03/01 05:00:36;;;;;;;12.35;8.32;;;1.30;99.90;;;;;;5110170;27;20171;-51
2021/03/01 05:03:04;;;;;;;9.75;7.22;;;1.00;99.90;;;;;;5113321;27;20175;-51
2021/03/01 05:05:30;;;;;;;9.77;7.10;;;1.20;99.90;;;;;;5114053;27;20540;-52
2021/03/01 05:07:58;;;;;;;9.40;7.28;;;1.20;99.90;;;;;;5113585;27;20190;-51
2021/03/01 05:10:26;;;;;;;10.68;7.57;;;1.60;99.90;;;;;;5101405;27;20179;-52
2021/03/01 05:12:52;;;;;;;9.95;7.05;;;1.20;99.90;;;;;;5107625;27;20390;-52
2021/03/01 05:15:18;;;;;;;11.45;7.50;;;1.30;99.90;;;;;;5113048;27;20199;-51
2021/03/01 05:17:45;;;;;;;12.40;8.17;;;1.20;99.90;;;;;;5097847;28;20305;-51
2021/03/01 05:20:12;;;;;;;11.35;7.45;;;1.10;99.90;;;;;;5112603;27;20437;-51
2021/03/01 05:22:38;;;;;;;12.05;7.53;;;1.10;99.90;;;;;;5113134;27;20185;-51
2021/03/01 05:25:05;;;;;;;14.95;9.15;;;1.10;99.90;;;;;;5112857;27;20266;-51
2021/03/01 05:27:33;;;;;;;12.27;8.23;;;1.20;99.90;;;;;;5113014;27;20199;-51
2021/03/01 05:29:59;;;;;;;11.48;8.07;;;1.00;99.90;;;;;;5109334;27;20578;-51
2021/03/01 05:32:24;;;;;;;11.33;8.07;;;0.90;99.90;;;;;;5112566;27;20182;-51
2021/03/01 05:34:51;;;;;;;11.00;7.90;;;1.20;99.90;;;;;;5130903;27;20628;-52
2021/03/01 05:37:17;;;;;;;10.00;7.20;;;1.00;99.90;;;;;;5108212;27;20604;-52
2021/03/01 05:39:42;;;;;;;18.57;7.43;;;1.30;99.90;;;;;;5105197;27;20179;-51
2021/03/01 05:42:11;;;;;;;13.73;7.67;;;1.30;99.90;;;;;;5106007;27;20221;-51
2021/03/01 05:44:37;;;;;;;10.50;7.45;;;1.30;99.90;;;;;;5104757;27;20183;-52
2021/03/01 05:47:04;;;;;;;13.57;8.27;;;1.30;99.90;;;;;;5101897;27;20264;-52
2021/03/01 05:49:29;;;;;;;10.57;7.95;;;1.30;99.90;;;;;;5104935;27;20193;-51
2021/03/01 05:51:58;;;;;;;9.03;7.63;;;1.10;99.90;;;;;;5126568;27;20274;-52
2021/03/01 05:54:27;;;;;;;11.27;8.15;;;1.10;99.90;;;;;;5105714;27;20432;-51
2021/03/01 05:56:54;;;;;;;16.92;9.15;;;1.00;99.90;;;;;;5106070;27;20191;-52
2021/03/01 05:59:20;;;;;;;11.38;8.05;;;1.00;99.90;;;;;;5104350;27;20190;-51
2021/03/01 06:01:46;;;;;;;9.87;7.10;;;1.10;99.90;;;;;;5107459;27;20187;-52
2021/03/01 06:04:12;;;;;;;11.73;7.35;;;1.20;99.90;;;;;;5115959;27;20456;-52
2021/03/01 06:06:38;;;;;;;16.33;8.70;;;1.00;99.90;;;;;;5108393;27;20250;-52
2021/03/01 06:09:05;;;;;;;12.20;8.40;;;1.00;99.90;;;;;;5110899;27;20191;-52
2021/03/01 06:11:30;;;;;;;17.00;8.38;;;1.00;99.90;;;;;;5110473;27;20174;-52
2021/03/01 06:13:56;;;;;;;12.77;9.50;;;1.10;99.90;;;;;;5104955;27;20223;-52
2021/03/01 06:16:22;;;;;;;13.60;7.87;;;1.10;99.90;;;;;;5103362;27;20202;-52
2021/03/01 06:18:48;;;;;;;18.90;7.93;;;0.90;99.90;;;;;;5109451;27;20749;-43
2021/03/01 06:21:16;;;;;;;11.00;8.37;;;1.10;99.90;;;;;;5122558;27;20314;-47
2021/03/01 06:23:43;;;;;;;11.65;7.50;;;1.10;99.90;;;;;;5105691;27;20443;-52
2021/03/01 06:26:38;;;;;;;11.57;7.57;;;1.00;99.90;;;;;;5095812;27;20523;-52
2021/03/01 06:29:04;;;;;;;13.80;8.82;;;1.30;99.90;;;;;;5090936;27;20219;-53
2021/03/01 06:31:48;;;;;;;15.67;9.80;;;1.00;99.90;;;;;;5124193;27;20316;-50
2021/03/01 06:34:16;;;;;;;13.70;8.40;;;1.20;99.90;;;;;;5103414;27;20598;-51
2021/03/01 06:37:06;;;;;;;18.00;8.90;;;1.00;99.90;;;;;;5102386;27;20675;-50
2021/03/01 06:39:33;;;;;;;12.55;9.05;;;1.30;99.90;;;;;;5114683;27;20187;-50
2021/03/01 06:42:20;;;;;;;13.32;8.57;;;0.90;99.90;;;;;;5115590;27;20191;-51
2021/03/01 06:44:48;;;;;;;12.82;8.75;;;1.20;99.90;;;;;;5100665;27;20282;-52
2021/03/01 06:47:14;;;;;;;13.80;9.13;;;1.40;99.90;;;;;;5103643;28;20214;-52
2021/03/01 06:49:43;;;;;;;13.77;9.27;;;1.30;99.90;;;;;;5101830;28;20271;-55
2021/03/01 06:52:09;;;;;;;11.25;8.90;;;1.40;99.90;;;;;;5106098;28;20182;-53
2021/03/01 06:54:35;;;;;;;11.45;8.50;;;1.60;99.90;;;;;;5105597;28;20171;-51
2021/03/01 06:57:01;;;;;;;12.93;8.35;;;1.50;99.90;;;;;;5105039;28;20210;-51
2021/03/01 06:59:26;;;;;;;12.10;8.33;;;1.70;99.90;;;;;;5119668;28;20178;-52
2021/03/01 07:01:58;;;;;;;13.43;8.33;;;1.50;99.90;;;;;;5118017;28;20270;-51
2021/03/01 07:04:26;;;;;;;12.02;8.70;;;1.70;99.90;;;;;;5102842;28;20614;-53
2021/03/01 07:06:53;;;;;;;13.23;8.18;;;1.60;99.90;;;;;;5104052;28;20203;-52
2021/03/01 07:09:27;;;;;;;13.45;8.50;;;1.80;99.90;;;;;;5104817;28;20239;-51
2021/03/01 07:11:54;;;;;;;17.13;10.00;;;2.20;99.90;;;;;;5119533;28;20695;-54
2021/03/01 07:14:23;;;;;;;14.38;8.68;;;2.10;99.90;;;;;;5103479;28;20667;-51
2021/03/01 07:16:51;;;;;;;13.95;8.23;;;2.00;99.90;;;;;;5102497;28;20222;-52
2021/03/01 07:19:19;;;;;;;12.43;8.43;;;1.90;99.90;;;;;;5122638;28;20191;-52
2021/03/01 07:21:53;;;;;;;15.00;9.15;;;1.90;99.90;;;;;;5102934;28;20231;-52
2021/03/01 07:24:23;;;;;;;14.25;9.80;;;2.20;99.90;;;;;;5096109;27;20262;-52
2021/03/01 07:26:50;;;;;;;13.82;9.43;;;2.20;99.90;;;;;;5106114;27;20202;-52
2021/03/01 07:29:18;;;;;;;13.82;9.52;;;2.10;99.90;;;;;;5104740;27;20944;-53
2021/03/01 07:32:01;;;;;;;12.32;9.38;;;1.80;99.90;;;;;;5112188;27;20597;-52
2021/03/01 07:34:28;;;;;;;15.95;9.07;;;2.00;99.90;;;;;;5104441;27;20209;-51
2021/03/01 07:36:55;;;;;;;12.95;9.00;;;2.20;99.90;;;;;;5102990;27;20199;-51
2021/03/01 07:39:21;;;;;;;11.68;8.80;;;2.30;99.90;;;;;;5124196;27;20202;-51
2021/03/01 07:41:48;;;;;;;15.85;9.80;;;2.50;99.90;;;;;;5102820;27;20184;-52
2021/03/01 07:44:15;;;;;;;16.08;9.77;;;2.30;99.90;;;;;;5100295;27;20175;-52
2021/03/01 07:46:45;;;;;;;15.63;8.60;;;2.30;99.90;;;;;;5108802;27;20676;-52
2021/03/01 07:49:34;;;;;;;13.25;9.20;;;2.60;99.90;;;;;;5112002;27;20615;-51
2021/03/01 07:52:00;;;;;;;15.07;10.00;;;2.40;99.90;;;;;;5105873;27;20218;-52
2021/03/01 07:55:09;;;;;;;13.70;9.60;;;2.80;99.90;;;;;;5096239;27;20183;-51
2021/03/01 07:57:36;;;;;;;14.35;9.20;;;2.90;99.90;;;;;;5099554;28;20203;-51
2021/03/01 08:00:24;;;;;;;14.65;10.25;;;3.10;99.90;;;;;;5109134;27;20183;-51
2021/03/01 08:02:49;;;;;;;13.80;10.40;;;3.20;99.90;;;;;;5101109;27;20191;-54
2021/03/01 08:05:27;;;;;;;16.53;10.50;;;3.10;99.90;;;;;;5112420;27;20239;-51
2021/03/01 08:07:53;;;;;;;18.92;10.60;;;3.10;99.90;;;;;;5112382;27;20210;-51
2021/03/01 08:10:28;;;;;;;11.23;9.82;;;3.30;99.90;;;;;;5110281;27;20183;-51
2021/03/01 08:13:05;;;;;;;15.38;10.40;;;3.70;99.90;;;;;;5123760;27;20218;-53
2021/03/01 08:15:34;;;;;;;19.95;10.88;;;3.70;99.90;;;;;;5113514;27;20201;-53
2021/03/01 08:18:01;;;;;;;14.75;10.18;;;4.00;99.90;;;;;;5112110;27;20270;-51
2021/03/01 08:20:34;;;;;;;14.18;9.95;;;4.10;99.90;;;;;;5111148;27;20596;-51
2021/03/01 08:23:10;;;;;;;16.92;10.10;;;4.20;99.90;;;;;;5104557;27;20188;-52
2021/03/01 08:25:58;;;;;;;13.98;9.85;;;4.50;99.90;;;;;;5108895;27;20278;-52
2021/03/01 08:28:23;;;;;;;13.45;9.88;;;4.60;99.90;;;;;;5110827;27;20194;-51
2021/03/01 08:30:52;;;;;;;15.53;10.07;;;4.80;99.90;;;;;;5112225;27;20175;-52
2021/03/01 08:33:17;;;;;;;19.90;11.18;;;4.80;99.90;;;;;;5101475;27;20172;-52
2021/03/01 08:35:51;;;;;;;17.17;11.70;;;4.80;99.90;;;;;;5111208;27;20660;-51
2021/03/01 08:38:38;;;;;;;16.15;11.43;;;4.70;99.90;;;;;;5113029;27;20548;-52
2021/03/01 08:41:04;;;;;;;17.42;12.40;;;4.10;99.90;;;;;;5120742;27;20191;-52
2021/03/01 08:43:35;;;;;;;19.70;11.30;;;4.70;99.90;;;;;;5125160;27;20184;-52
2021/03/01 08:46:02;;;;;;;19.40;12.88;;;5.10;99.90;;;;;;5113968;27;20454;-52
2021/03/01 08:48:28;;;;;;;18.00;13.55;;;5.30;99.90;;;;;;5121189;27;20200;-52
2021/03/01 08:50:55;;;;;;;18.73;13.40;;;5.30;99.90;;;;;;5112489;27;20619;-52
2021/03/01 08:53:21;;;;;;;19.05;13.77;;;5.10;99.90;;;;;;5112814;27;20217;-52
2021/03/01 08:55:47;;;;;;;19.65;11.43;;;5.60;99.40;;;;;;5112659;27;20182;-52
2021/03/01 08:58:15;;;;;;;18.70;13.23;;;6.10;98.90;;;;;;5113273;27;20204;-52
2021/03/01 09:00:56;;;;;;;17.40;12.10;;;6.70;98.60;;;;;;5111816;27;20925;-52
2021/03/01 09:03:23;;;;;;;18.35;12.07;;;7.00;97.20;;;;;;5107641;27;20182;-50
2021/03/01 09:05:52;;;;;;;19.92;11.82;;;7.70;95.70;;;;;;5107821;27;20225;-51
2021/03/01 09:08:30;;;;;;;19.33;13.30;;;8.20;94.60;;;;;;5110878;27;20216;-52
2021/03/01 09:10:57;;;;;;;17.02;13.27;;;8.50;93.40;;;;;;5102953;27;20183;-51
2021/03/01 09:13:24;;;;;;;16.83;13.20;;;8.60;92.10;;;;;;5112725;27;20639;-52
2021/03/01 09:15:49;;;;;;;18.10;12.70;;;8.80;91.50;;;;;;5111294;27;20214;-52
2021/03/01 09:18:16;;;;;;;20.00;13.40;;;9.00;92.00;;;;;;5112040;27;20197;-53
2021/03/01 09:20:50;;;;;;;21.52;12.55;;;9.10;91.20;;;;;;5110523;27;20258;-53
2021/03/01 09:23:30;;;;;;;21.30;12.90;;;8.90;90.30;;;;;;5102271;27;20189;-53
2021/03/01 09:25:56;;;;;;;14.50;11.48;;;8.90;90.00;;;;;;5109538;27;20221;-50
2021/03/01 09:28:29;;;;;;;17.33;13.03;;;9.30;90.10;;;;;;5111093;27;20206;-52
2021/03/01 09:31:12;;;;;;;17.30;12.48;;;9.30;88.80;;;;;;5109342;27;20640;-52
2021/03/01 09:33:39;;;;;;;15.75;11.00;;;9.60;88.10;;;;;;5103440;27;20182;-50
2021/03/01 09:36:06;;;;;;;14.25;11.40;;;10.00;84.60;;;;;;5108453;27;20203;-51
2021/03/01 09:38:32;;;;;;;17.20;11.05;;;10.60;83.50;;;;;;5126718;27;20259;-51
2021/03/01 09:41:12;;;;;;;16.67;11.65;;;11.00;81.10;;;;;;5110055;27;20192;-49
2021/03/01 09:43:40;;;;;;;18.48;11.15;;;11.90;79.80;;;;;;5111240;27;20189;-51
2021/03/01 09:46:09;;;;;;;16.90;11.75;;;12.50;75.70;;;;;;5104590;27;20199;-51
2021/03/01 09:48:45;;;;;;;12.07;10.60;;;13.00;73.80;;;;;;5130272;27;20635;-51
2021/03/01 09:51:11;;;;;;;15.63;11.52;;;13.30;71.40;;;;;;5110697;27;20269;-51
2021/03/01 09:53:38;;;;;;;12.02;10.60;;;13.60;69.70;;;;;;5109305;27;20175;-51
2021/03/01 09:56:04;;;;;;;13.60;11.10;;;13.40;69.30;;;;;;5108841;27;20230;-53
2021/03/01 09:58:38;;;;;;;13.48;9.77;;;12.90;70.10;;;;;;5110671;27;20673;-52
2021/03/01 10:01:26;;;;;;;13.02;10.15;;;12.40;70.90;;;;;;5108615;27;20197;-50
2021/03/01 10:03:52;;;;;;;13.95;9.95;;;12.40;71.80;;;;;;5108604;27;20514;-51
2021/03/01 10:06:33;;;;;;;11.37;9.47;;;12.30;70.20;;;;;;5111663;27;20220;-51
2021/03/01 10:09:05;;;;;;;15.27;9.88;;;12.30;70.60;;;;;;5125287;27;20198;-52
2021/03/01 10:11:30;;;;;;;11.95;9.45;;;12.50;69.20;;;;;;5108951;27;20175;-53
2021/03/01 10:14:11;;;;;;;13.07;9.90;;;12.70;69.10;;;;;;5109757;27;20240;-53
2021/03/01 10:16:41;;;;;;;12.73;10.20;;;13.30;68.00;;;;;;5102369;27;20303;-54
2021/03/01 10:19:15;;;;;;;11.32;10.10;;;13.60;66.70;;;;;;5128820;27;20811;-54
2021/03/01 10:21:42;;;;;;;11.80;9.23;;;13.30;66.60;;;;;;5108884;27;20691;-55
2021/03/01 10:24:12;;;;;;;14.02;8.88;;;13.30;66.30;;;;;;5108651;27;20317;-54
2021/03/01 10:27:04;;;;;;;14.13;9.48;;;13.40;66.00;;;;;;5130427;27;20234;-54
2021/03/01 10:29:29;;;;;;;11.63;8.98;;;13.20;65.80;;;;;;5110686;27;20245;-54
2021/03/01 10:31:55;;;;;;;11.27;8.90;;;12.40;67.90;;;;;;5109847;27;20221;-55
2021/03/01 10:34:31;;;;;;;10.87;9.07;;;12.40;68.60;;;;;;5108305;27;20201;-53
2021/03/01 10:37:11;;;;;;;11.13;9.15;;;12.30;67.40;;;;;;5111396;27;20209;-52
2021/03/01 10:39:42;;;;;;;13.13;8.65;;;12.40;68.30;;;;;;5110539;28;20186;-51
2021/03/01 10:42:12;;;;;;;13.98;9.30;;;13.00;67.20;;;;;;5110582;27;20198;-52
2021/03/01 10:44:46;;;;;;;11.30;9.65;;;12.50;66.90;;;;;;5108282;28;20306;-52
2021/03/01 10:47:20;;;;;;;12.77;8.98;;;13.50;67.00;;;;;;5110350;28;20232;-51
2021/03/01 10:49:47;;;;;;;10.73;8.68;;;13.20;63.50;;;;;;5107935;27;20805;-53
2021/03/01 10:52:14;;;;;;;12.75;8.63;;;13.60;62.20;;;;;;5111725;28;20175;-53
2021/03/01 10:54:40;;;;;;;14.15;8.27;;;13.10;62.20;;;;;;5110463;28;20536;-52
2021/03/01 10:57:06;;;;;;;12.00;9.50;;;13.30;62.80;;;;;;5109280;27;20214;-52
2021/03/01 10:59:32;;;;;;;9.13;8.18;;;13.40;62.70;;;;;;5110556;28;20175;-52
2021/03/01 11:01:58;;;;;;;15.98;9.77;;;13.00;63.20;;;;;;5109146;28;20190;-52
2021/03/01 11:04:23;;;;;;;10.17;8.50;;;13.10;63.60;;;;;;5109220;28;20221;-52
2021/03/01 11:06:51;;;;;;;10.73;8.37;;;13.20;63.40;;;;;;5110575;28;20221;-52
2021/03/01 11:09:18;;;;;;;13.75;9.30;;;13.70;63.70;;;;;;5098349;28;20211;-53
2021/03/01 11:11:45;;;;;;;15.07;11.63;;;14.20;62.40;;;;;;5106656;28;20295;-52
2021/03/01 11:14:12;;;;;;;10.32;8.82;;;15.50;60.10;;;;;;5124307;28;21033;-53
2021/03/01 11:16:38;;;;;;;12.30;9.95;;;16.40;57.10;;;;;;5109987;28;20266;-52
2021/03/01 11:19:05;;;;;;;9.48;8.48;;;16.70;55.40;;;;;;5109135;28;20194;-52
2021/03/01 11:21:31;;;;;;;8.95;8.05;;;16.60;53.80;;;;;;5109696;28;20182;-52
2021/03/01 11:23:57;;;;;;;9.80;8.77;;;15.60;54.90;;;;;;5127629;28;20219;-52
2021/03/01 11:26:24;;;;;;;10.65;9.10;;;15.50;56.50;;;;;;5109355;28;20202;-53
2021/03/01 11:28:50;;;;;;;13.93;7.35;;;15.70;54.90;;;;;;5108698;28;20209;-52
2021/03/01 11:31:16;;;;;;;10.50;8.40;;;15.80;54.70;;;;;;5110582;28;20182;-53
2021/03/01 11:33:42;;;;;;;10.40;9.30;;;16.10;55.10;;;;;;5108755;28;20178;-53
2021/03/01 11:36:08;;;;;;;10.47;8.00;;;16.10;54.10;;;;;;5110810;28;20663;-52
2021/03/01 11:38:34;;;;;;;8.68;7.18;;;15.60;54.00;;;;;;5125174;27;21992;-52
2021/03/01 11:40:59;;;;;;;8.67;7.73;;;15.40;54.80;;;;;;5109935;28;20210;-53
2021/03/01 11:43:25;;;;;;;14.83;8.80;;;15.10;55.70;;;;;;5110037;28;20273;-54
2021/03/01 11:45:51;;;;;;;9.70;7.77;;;14.60;57.30;;;;;;5124417;27;20211;-54
2021/03/01 11:48:18;;;;;;;10.13;8.27;;;15.10;57.10;;;;;;5108089;28;20624;-50
2021/03/01 11:50:46;;;;;;;9.20;7.40;;;15.20;55.80;;;;;;5109138;28;20798;-53
2021/03/01 11:53:13;;;;;;;9.15;7.97;;;15.40;55.90;;;;;;5108313;28;20179;-51
2021/03/01 11:55:39;;;;;;;23.83;18.10;;;15.80;55.00;;;;;;5109305;28;20380;-51
2021/03/01 11:58:05;;;;;;;11.63;7.30;;;15.90;53.80;;;;;;5124448;28;20187;-52
2021/03/01 12:00:31;;;;;;;9.80;6.77;;;15.90;53.60;;;;;;5110312;28;20183;-51
2021/03/01 12:02:57;;;;;;;7.78;6.90;;;15.70;51.80;;;;;;5108417;28;20802;-52
2021/03/01 12:05:23;;;;;;;8.00;7.20;;;15.90;58.60;;;;;;5109405;28;20175;-53
2021/03/01 12:07:49;;;;;;;8.37;7.53;;;16.20;57.60;;;;;;5106675;27;20206;-53
2021/03/01 12:10:15;;;;;;;12.50;7.10;;;15.90;51.90;;;;;;5113140;27;20229;-52
2021/03/01 12:12:40;;;;;;;7.25;6.25;;;15.90;51.60;;;;;;5121625;27;20437;-52
2021/03/01 12:15:08;;;;;;;9.37;6.73;;;15.60;51.30;;;;;;5128130;27;20210;-53
2021/03/01 12:17:34;;;;;;;8.60;6.68;;;15.80;52.10;;;;;;5109029;27;20204;-53
2021/03/01 12:20:00;;;;;;;8.07;6.55;;;15.60;52.40;;;;;;5114178;27;20178;-52
2021/03/01 12:22:26;;;;;;;5.50;4.70;;;15.70;51.80;;;;;;5111829;27;20186;-53
2021/03/01 12:24:51;;;;;;;4.90;4.40;;;16.10;47.20;;;;;;5127672;27;20205;-54
2021/03/01 12:27:17;;;;;;;6.10;5.60;;;16.10;48.20;;;;;;5108207;27;20243;-51
2021/03/01 12:29:43;;;;;;;5.53;4.77;;;16.20;48.70;;;;;;5108713;27;20671;-52
2021/03/01 12:32:08;;;;;;;5.93;5.33;;;16.20;48.80;;;;;;5112870;27;20175;-52
2021/03/01 12:34:37;;;;;;;3.67;3.17;;;16.00;48.70;;;;;;5129451;27;20315;-55
2021/03/01 12:37:04;;;;;;;4.43;3.50;;;16.40;46.30;;;;;;5111141;27;20251;-54
2021/03/01 12:39:29;;;;;;;3.53;3.08;;;16.40;45.50;;;;;;5109266;27;20183;-53
2021/03/01 12:41:55;;;;;;;4.07;3.30;;;16.40;45.50;;;;;;5110511;27;20265;-53
2021/03/01 12:44:21;;;;;;;3.67;3.03;;;16.00;45.40;;;;;;5101482;27;20187;-54
2021/03/01 12:46:47;;;;;;;4.93;3.70;;;16.20;46.40;;;;;;5110591;27;20252;-53
2021/03/01 12:49:12;;;;;;;8.90;3.67;;;16.00;45.80;;;;;;5111621;27;20675;-53
2021/03/01 12:51:38;;;;;;;5.27;3.73;;;16.20;47.00;;;;;;5111373;27;20650;-51
2021/03/01 12:54:04;;;;;;;5.00;3.90;;;16.10;46.10;;;;;;5131272;27;20185;-52